Aviation Digital Data Service (ADDS)

Output produced by METARs form (2250 UTC 15 February 2019)
found at http://www.aviationweather.gov/metar/data/
 
METAR text: EKAH 152220Z AUTO 16003KT 9999NDV NCD 06/01 Q1024
Conditions at: EKAH (TIRSTRUP (CIV/MI, DK) observed 2220 UTC 15 February 2019
Temperature: 6.0°C (43°F)
Dewpoint: 1.0°C (34°F) [RH = 70%]
Pressure (altimeter): 30.24 inches Hg (1024.0 mb)
Winds: from the SSE (160 degrees) at 3 MPH (3 knots; 1.5 m/s)
Visibility: missing
Ceiling: at least 12,000 feet AGL
Clouds: sky clear below 12,000 feet AGL
Weather: no significant weather observed at this time

METAR text: EKAH 152150Z AUTO 19004KT 120V240 9999NDV NCD 07/01 Q1024
Conditions at: EKAH (TIRSTRUP (CIV/MI, DK) observed 2150 UTC 15 February 2019
Temperature: 7.0°C (45°F)
Dewpoint: 1.0°C (34°F) [RH = 66%]
Pressure (altimeter): 30.24 inches Hg (1024.0 mb)
Winds: from the S (190 degrees) at 5 MPH (4 knots; 2.1 m/s)
Visibility: missing
Ceiling: at least 12,000 feet AGL
Clouds: sky clear below 12,000 feet AGL
Weather: no significant weather observed at this time

METAR text: EKAH 152120Z AUTO 20004KT 140V240 9999NDV NCD 07/01 Q1025
Conditions at: EKAH (TIRSTRUP (CIV/MI, DK) observed 2120 UTC 15 February 2019
Temperature: 7.0°C (45°F)
Dewpoint: 1.0°C (34°F) [RH = 66%]
Pressure (altimeter): 30.27 inches Hg (1025.0 mb)
Winds: from the SSW (200 degrees) at 5 MPH (4 knots; 2.1 m/s)
Visibility: missing
Ceiling: at least 12,000 feet AGL
Clouds: sky clear below 12,000 feet AGL
Weather: no significant weather observed at this time

METAR text: EKAH 152050Z AUTO 21005KT 140V260 9999NDV NCD 07/01 Q1025
Conditions at: EKAH (TIRSTRUP (CIV/MI, DK) observed 2050 UTC 15 February 2019
Temperature: 7.0°C (45°F)
Dewpoint: 1.0°C (34°F) [RH = 66%]
Pressure (altimeter): 30.27 inches Hg (1025.0 mb)
Winds: from the SSW (210 degrees) at 6 MPH (5 knots; 2.6 m/s)
Visibility: missing
Ceiling: at least 12,000 feet AGL
Clouds: sky clear below 12,000 feet AGL
Weather: no significant weather observed at this time

METAR text: EKAH 152020Z AUTO 19004KT 120V260 9999NDV NCD 07/01 Q1025
Conditions at: EKAH (TIRSTRUP (CIV/MI, DK) observed 2020 UTC 15 February 2019
Temperature: 7.0°C (45°F)
Dewpoint: 1.0°C (34°F) [RH = 66%]
Pressure (altimeter): 30.27 inches Hg (1025.0 mb)
Winds: from the S (190 degrees) at 5 MPH (4 knots; 2.1 m/s)
Visibility: missing
Ceiling: at least 12,000 feet AGL
Clouds: sky clear below 12,000 feet AGL
Weather: no significant weather observed at this time

METAR text: EKAH 151950Z AUTO 17003KT 9999NDV NCD 06/01 Q1025
Conditions at: EKAH (TIRSTRUP (CIV/MI, DK) observed 1950 UTC 15 February 2019
Temperature: 6.0°C (43°F)
Dewpoint: 1.0°C (34°F) [RH = 70%]
Pressure (altimeter): 30.27 inches Hg (1025.0 mb)
Winds: from the S (170 degrees) at 3 MPH (3 knots; 1.5 m/s)
Visibility: missing
Ceiling: at least 12,000 feet AGL
Clouds: sky clear below 12,000 feet AGL
Weather: no significant weather observed at this time

METAR text: EKAH 151920Z AUTO 15003KT 9999NDV NCD 05/01 Q1026
Conditions at: EKAH (TIRSTRUP (CIV/MI, DK) observed 1920 UTC 15 February 2019
Temperature: 5.0°C (41°F)
Dewpoint: 1.0°C (34°F) [RH = 75%]
Pressure (altimeter): 30.30 inches Hg (1026.0 mb)
Winds: from the SSE (150 degrees) at 3 MPH (3 knots; 1.5 m/s)
Visibility: missing
Ceiling: at least 12,000 feet AGL
Clouds: sky clear below 12,000 feet AGL
Weather: no significant weather observed at this time

METAR text: EKAH 151850Z AUTO VRB02KT 9999NDV NCD 05/01 Q1026
Conditions at: EKAH (TIRSTRUP (CIV/MI, DK) observed 1850 UTC 15 February 2019
Temperature: 5.0°C (41°F)
Dewpoint: 1.0°C (34°F) [RH = 75%]
Pressure (altimeter): 30.30 inches Hg (1026.0 mb)
Winds: variable direction winds at 2 MPH (2 knots; 1.0 m/s)
Visibility: missing
Ceiling: at least 12,000 feet AGL
Clouds: sky clear below 12,000 feet AGL
Weather: no significant weather observed at this time

METAR text: EKAH 151820Z AUTO 16002KT 9999NDV NCD 06/02 Q1027
Conditions at: EKAH (TIRSTRUP (CIV/MI, DK) observed 1820 UTC 15 February 2019
Temperature: 6.0°C (43°F)
Dewpoint: 2.0°C (36°F) [RH = 75%]
Pressure (altimeter): 30.32 inches Hg (1027.0 mb)
Winds: from the SSE (160 degrees) at 2 MPH (2 knots; 1.0 m/s)
Visibility: missing
Ceiling: at least 12,000 feet AGL
Clouds: sky clear below 12,000 feet AGL
Weather: no significant weather observed at this time

METAR text: EKAH 151750Z AUTO 16003KT 9999NDV NCD 06/02 Q1027
Conditions at: EKAH (TIRSTRUP (CIV/MI, DK) observed 1750 UTC 15 February 2019
Temperature: 6.0°C (43°F)
Dewpoint: 2.0°C (36°F) [RH = 75%]
Pressure (altimeter): 30.32 inches Hg (1027.0 mb)
Winds: from the SSE (160 degrees) at 3 MPH (3 knots; 1.5 m/s)
Visibility: missing
Ceiling: at least 12,000 feet AGL
Clouds: sky clear below 12,000 feet AGL
Weather: no significant weather observed at this time

METAR text: EKAH 151720Z AUTO 18003KT 9999NDV NCD 05/02 Q1027
Conditions at: EKAH (TIRSTRUP (CIV/MI, DK) observed 1720 UTC 15 February 2019
Temperature: 5.0°C (41°F)
Dewpoint: 2.0°C (36°F) [RH = 81%]
Pressure (altimeter): 30.32 inches Hg (1027.0 mb)
Winds: from the S (180 degrees) at 3 MPH (3 knots; 1.5 m/s)
Visibility: missing
Ceiling: at least 12,000 feet AGL
Clouds: sky clear below 12,000 feet AGL
Weather: no significant weather observed at this time

METAR text: EKAH 151650Z AUTO 18004KT 130V220 9999NDV NCD 06/03 Q1027
Conditions at: EKAH (TIRSTRUP (CIV/MI, DK) observed 1650 UTC 15 February 2019
Temperature: 6.0°C (43°F)
Dewpoint: 3.0°C (37°F) [RH = 81%]
Pressure (altimeter): 30.32 inches Hg (1027.0 mb)
Winds: from the S (180 degrees) at 5 MPH (4 knots; 2.1 m/s)
Visibility: missing
Ceiling: at least 12,000 feet AGL
Clouds: sky clear below 12,000 feet AGL
Weather: no significant weather observed at this time

METAR text: EKAH 151620Z AUTO 18005KT 150V210 9999NDV NCD 07/03 Q1027
Conditions at: EKAH (TIRSTRUP (CIV/MI, DK) observed 1620 UTC 15 February 2019
Temperature: 7.0°C (45°F)
Dewpoint: 3.0°C (37°F) [RH = 76%]
Pressure (altimeter): 30.32 inches Hg (1027.0 mb)
Winds: from the S (180 degrees) at 6 MPH (5 knots; 2.6 m/s)
Visibility: missing
Ceiling: at least 12,000 feet AGL
Clouds: sky clear below 12,000 feet AGL
Weather: no significant weather observed at this time

METAR text: EKAH 151550Z AUTO 18005KT 150V220 9999NDV NCD 08/04 Q1028
Conditions at: EKAH (TIRSTRUP (CIV/MI, DK) observed 1550 UTC 15 February 2019
Temperature: 8.0°C (46°F)
Dewpoint: 4.0°C (39°F) [RH = 76%]
Pressure (altimeter): 30.35 inches Hg (1028.0 mb)
Winds: from the S (180 degrees) at 6 MPH (5 knots; 2.6 m/s)
Visibility: missing
Ceiling: at least 12,000 feet AGL
Clouds: sky clear below 12,000 feet AGL
Weather: no significant weather observed at this time

METAR text: EKAH 151520Z AUTO 19005KT 160V230 9999NDV NCD 09/04 Q1028
Conditions at: EKAH (TIRSTRUP (CIV/MI, DK) observed 1520 UTC 15 February 2019
Temperature: 9.0°C (48°F)
Dewpoint: 4.0°C (39°F) [RH = 71%]
Pressure (altimeter): 30.35 inches Hg (1028.0 mb)
Winds: from the S (190 degrees) at 6 MPH (5 knots; 2.6 m/s)
Visibility: missing
Ceiling: at least 12,000 feet AGL
Clouds: sky clear below 12,000 feet AGL
Weather: no significant weather observed at this time

METAR text: EKAH 151450Z AUTO 18004KT 140V230 9999NDV NCD 10/04 Q1028
Conditions at: EKAH (TIRSTRUP (CIV/MI, DK) observed 1450 UTC 15 February 2019
Temperature: 10.0°C (50°F)
Dewpoint: 4.0°C (39°F) [RH = 66%]
Pressure (altimeter): 30.35 inches Hg (1028.0 mb)
Winds: from the S (180 degrees) at 5 MPH (4 knots; 2.1 m/s)
Visibility: missing
Ceiling: at least 12,000 feet AGL
Clouds: sky clear below 12,000 feet AGL
Weather: no significant weather observed at this time

METAR text: EKAH 151420Z AUTO 17003KT 9999NDV NCD 11/05 Q1028
Conditions at: EKAH (TIRSTRUP (CIV/MI, DK) observed 1420 UTC 15 February 2019
Temperature: 11.0°C (52°F)
Dewpoint: 5.0°C (41°F) [RH = 66%]
Pressure (altimeter): 30.35 inches Hg (1028.0 mb)
Winds: from the S (170 degrees) at 3 MPH (3 knots; 1.5 m/s)
Visibility: missing
Ceiling: at least 12,000 feet AGL
Clouds: sky clear below 12,000 feet AGL
Weather: no significant weather observed at this time

METAR text: EKAH 151350Z AUTO 21003KT 9999NDV NCD 12/04 Q1028
Conditions at: EKAH (TIRSTRUP (CIV/MI, DK) observed 1350 UTC 15 February 2019
Temperature: 12.0°C (54°F)
Dewpoint: 4.0°C (39°F) [RH = 58%]
Pressure (altimeter): 30.35 inches Hg (1028.0 mb)
Winds: from the SSW (210 degrees) at 3 MPH (3 knots; 1.5 m/s)
Visibility: missing
Ceiling: at least 12,000 feet AGL
Clouds: sky clear below 12,000 feet AGL
Weather: no significant weather observed at this time

METAR text: EKAH 151320Z AUTO 22004KT 160V280 9999NDV NCD 12/05 Q1029
Conditions at: EKAH (TIRSTRUP (CIV/MI, DK) observed 1320 UTC 15 February 2019
Temperature: 12.0°C (54°F)
Dewpoint: 5.0°C (41°F) [RH = 62%]
Pressure (altimeter): 30.38 inches Hg (1029.0 mb)
Winds: from the SW (220 degrees) at 5 MPH (4 knots; 2.1 m/s)
Visibility: missing
Ceiling: at least 12,000 feet AGL
Clouds: sky clear below 12,000 feet AGL
Weather: no significant weather observed at this time

METAR text: EKAH 151250Z AUTO 21004KT 100V270 9999NDV NCD 11/04 Q1029
Conditions at: EKAH (TIRSTRUP (CIV/MI, DK) observed 1250 UTC 15 February 2019
Temperature: 11.0°C (52°F)
Dewpoint: 4.0°C (39°F) [RH = 62%]
Pressure (altimeter): 30.38 inches Hg (1029.0 mb)
Winds: from the SSW (210 degrees) at 5 MPH (4 knots; 2.1 m/s)
Visibility: missing
Ceiling: at least 12,000 feet AGL
Clouds: sky clear below 12,000 feet AGL
Weather: no significant weather observed at this time

METAR text: EKAH 151220Z AUTO 15004KT 110V220 9999NDV R10R/1400N R28L/P1500N NCD 11/04 Q1029
Conditions at: EKAH (TIRSTRUP (CIV/MI, DK) observed 1220 UTC 15 February 2019
Temperature: 11.0°C (52°F)
Dewpoint: 4.0°C (39°F) [RH = 62%]
Pressure (altimeter): 30.38 inches Hg (1029.0 mb)
Winds: from the SSE (150 degrees) at 5 MPH (4 knots; 2.1 m/s)
Visibility: 0.87 miles (1.40 km)
Ceiling: at least 12,000 feet AGL
Clouds: sky clear below 12,000 feet AGL
Weather: no significant weather observed at this time

METAR text: EKAH 151150Z AUTO VRB01KT 9999NDV R10R/1400N R28L/P1500N NCD 10/04 Q1029
Conditions at: EKAH (TIRSTRUP (CIV/MI, DK) observed 1150 UTC 15 February 2019
Temperature: 10.0°C (50°F)
Dewpoint: 4.0°C (39°F) [RH = 66%]
Pressure (altimeter): 30.38 inches Hg (1029.0 mb)
Winds: variable direction winds at 1 MPH (1 knots; 0.5 m/s)
Visibility: 0.87 miles (1.40 km)
Ceiling: at least 12,000 feet AGL
Clouds: sky clear below 12,000 feet AGL
Weather: no significant weather observed at this time

METAR text: EKAH 151120Z AUTO 21003KT 9999NDV NCD 09/04 Q1029
Conditions at: EKAH (TIRSTRUP (CIV/MI, DK) observed 1120 UTC 15 February 2019
Temperature: 9.0°C (48°F)
Dewpoint: 4.0°C (39°F) [RH = 71%]
Pressure (altimeter): 30.38 inches Hg (1029.0 mb)
Winds: from the SSW (210 degrees) at 3 MPH (3 knots; 1.5 m/s)
Visibility: missing
Ceiling: at least 12,000 feet AGL
Clouds: sky clear below 12,000 feet AGL
Weather: no significant weather observed at this time

METAR text: EKAH 151050Z AUTO 22004KT 170V280 9999NDV NCD 08/03 Q1030
Conditions at: EKAH (TIRSTRUP (CIV/MI, DK) observed 1050 UTC 15 February 2019
Temperature: 8.0°C (46°F)
Dewpoint: 3.0°C (37°F) [RH = 71%]
Pressure (altimeter): 30.41 inches Hg (1030.0 mb)
Winds: from the SW (220 degrees) at 5 MPH (4 knots; 2.1 m/s)
Visibility: missing
Ceiling: at least 12,000 feet AGL
Clouds: sky clear below 12,000 feet AGL
Weather: no significant weather observed at this time

METAR text: EKAH 151020Z AUTO 24005KT 210V300 9999NDV NCD 08/03 Q1030
Conditions at: EKAH (TIRSTRUP (CIV/MI, DK) observed 1020 UTC 15 February 2019
Temperature: 8.0°C (46°F)
Dewpoint: 3.0°C (37°F) [RH = 71%]
Pressure (altimeter): 30.41 inches Hg (1030.0 mb)
Winds: from the WSW (240 degrees) at 6 MPH (5 knots; 2.6 m/s)
Visibility: missing
Ceiling: at least 12,000 feet AGL
Clouds: sky clear below 12,000 feet AGL
Weather: no significant weather observed at this time

METAR text: EKAH 150950Z AUTO 23004KT 160V280 9999NDV NCD 07/03 Q1031
Conditions at: EKAH (TIRSTRUP (CIV/MI, DK) observed 0950 UTC 15 February 2019
Temperature: 7.0°C (45°F)
Dewpoint: 3.0°C (37°F) [RH = 76%]
Pressure (altimeter): 30.44 inches Hg (1031.0 mb)
Winds: from the SW (230 degrees) at 5 MPH (4 knots; 2.1 m/s)
Visibility: missing
Ceiling: at least 12,000 feet AGL
Clouds: sky clear below 12,000 feet AGL
Weather: no significant weather observed at this time

METAR text: EKAH 150920Z AUTO 24004KT 180V280 9999NDV NCD 05/03 Q1031
Conditions at: EKAH (TIRSTRUP (CIV/MI, DK) observed 0920 UTC 15 February 2019
Temperature: 5.0°C (41°F)
Dewpoint: 3.0°C (37°F) [RH = 87%]
Pressure (altimeter): 30.44 inches Hg (1031.0 mb)
Winds: from the WSW (240 degrees) at 5 MPH (4 knots; 2.1 m/s)
Visibility: missing
Ceiling: at least 12,000 feet AGL
Clouds: sky clear below 12,000 feet AGL
Weather: no significant weather observed at this time

METAR text: EKAH 150850Z AUTO VRB03KT 9999NDV NCD 04/03 Q1031
Conditions at: EKAH (TIRSTRUP (CIV/MI, DK) observed 0850 UTC 15 February 2019
Temperature: 4.0°C (39°F)
Dewpoint: 3.0°C (37°F) [RH = 93%]
Pressure (altimeter): 30.44 inches Hg (1031.0 mb)
Winds: variable direction winds at 3 MPH (3 knots; 1.5 m/s)
Visibility: missing
Ceiling: at least 12,000 feet AGL
Clouds: sky clear below 12,000 feet AGL
Weather: no significant weather observed at this time

METAR text: EKAH 150820Z AUTO 25003KT 9999NDV NCD 03/03 Q1031
Conditions at: EKAH (TIRSTRUP (CIV/MI, DK) observed 0820 UTC 15 February 2019
Temperature: 3.0°C (37°F)
Dewpoint: 3.0°C (37°F) [RH = 100%]
Pressure (altimeter): 30.44 inches Hg (1031.0 mb)
Winds: from the WSW (250 degrees) at 3 MPH (3 knots; 1.5 m/s)
Visibility: missing
Ceiling: at least 12,000 feet AGL
Clouds: sky clear below 12,000 feet AGL
Weather: no significant weather observed at this time

METAR text: EKAH 150750Z AUTO 23002KT 7000NDV NCD 02/02 Q1031
Conditions at: EKAH (TIRSTRUP (CIV/MI, DK) observed 0750 UTC 15 February 2019
Temperature: 2.0°C (36°F)
Dewpoint: 2.0°C (36°F) [RH = 100%]
Pressure (altimeter): 30.44 inches Hg (1031.0 mb)
Winds: from the SW (230 degrees) at 2 MPH (2 knots; 1.0 m/s)
Visibility: missing
Ceiling: at least 12,000 feet AGL
Clouds: sky clear below 12,000 feet AGL
Weather: no significant weather observed at this time

METAR text: EKAH 150720Z AUTO 18003KT 2800NDV BR NCD 01/01 Q1031
Conditions at: EKAH (TIRSTRUP (CIV/MI, DK) observed 0720 UTC 15 February 2019
Temperature: 1.0°C (34°F)
Dewpoint: 1.0°C (34°F) [RH = 100%]
Pressure (altimeter): 30.44 inches Hg (1031.0 mb)
Winds: from the S (180 degrees) at 3 MPH (3 knots; 1.5 m/s)
Visibility: missing
Ceiling: at least 12,000 feet AGL
Clouds: sky clear below 12,000 feet AGL
Weather: BR  (mist)

METAR text: EKAH 150650Z AUTO 17003KT 2700NDV BR NCD 02/02 Q1031
Conditions at: EKAH (TIRSTRUP (CIV/MI, DK) observed 0650 UTC 15 February 2019
Temperature: 2.0°C (36°F)
Dewpoint: 2.0°C (36°F) [RH = 100%]
Pressure (altimeter): 30.44 inches Hg (1031.0 mb)
Winds: from the S (170 degrees) at 3 MPH (3 knots; 1.5 m/s)
Visibility: missing
Ceiling: at least 12,000 feet AGL
Clouds: sky clear below 12,000 feet AGL
Weather: BR  (mist)

METAR text: EKAH 150620Z AUTO 12002KT 8000NDV NCD 03/02 Q1030
Conditions at: EKAH (TIRSTRUP (CIV/MI, DK) observed 0620 UTC 15 February 2019
Temperature: 3.0°C (37°F)
Dewpoint: 2.0°C (36°F) [RH = 93%]
Pressure (altimeter): 30.41 inches Hg (1030.0 mb)
Winds: from the ESE (120 degrees) at 2 MPH (2 knots; 1.0 m/s)
Visibility: missing
Ceiling: at least 12,000 feet AGL
Clouds: sky clear below 12,000 feet AGL
Weather: no significant weather observed at this time

METAR text: EKAH 150550Z AUTO VRB01KT 7000NDV NCD 03/03 Q1030
Conditions at: EKAH (TIRSTRUP (CIV/MI, DK) observed 0550 UTC 15 February 2019
Temperature: 3.0°C (37°F)
Dewpoint: 3.0°C (37°F) [RH = 100%]
Pressure (altimeter): 30.41 inches Hg (1030.0 mb)
Winds: variable direction winds at 1 MPH (1 knots; 0.5 m/s)
Visibility: missing
Ceiling: at least 12,000 feet AGL
Clouds: sky clear below 12,000 feet AGL
Weather: no significant weather observed at this time

METAR text: EKAH 150520Z AUTO VRB01KT 3100NDV BR NCD 02/02 Q1030
Conditions at: EKAH (TIRSTRUP (CIV/MI, DK) observed 0520 UTC 15 February 2019
Temperature: 2.0°C (36°F)
Dewpoint: 2.0°C (36°F) [RH = 100%]
Pressure (altimeter): 30.41 inches Hg (1030.0 mb)
Winds: variable direction winds at 1 MPH (1 knots; 0.5 m/s)
Visibility: missing
Ceiling: at least 12,000 feet AGL
Clouds: sky clear below 12,000 feet AGL
Weather: BR  (mist)

METAR text: EKAH 150450Z AUTO 18003KT 3700NDV BR NCD 02/02 Q1030
Conditions at: EKAH (TIRSTRUP (CIV/MI, DK) observed 0450 UTC 15 February 2019
Temperature: 2.0°C (36°F)
Dewpoint: 2.0°C (36°F) [RH = 100%]
Pressure (altimeter): 30.41 inches Hg (1030.0 mb)
Winds: from the S (180 degrees) at 3 MPH (3 knots; 1.5 m/s)
Visibility: missing
Ceiling: at least 12,000 feet AGL
Clouds: sky clear below 12,000 feet AGL
Weather: BR  (mist)

METAR text: EKAH 150420Z AUTO 21002KT 5000NDV FEW003/// 03/03 Q1031
Conditions at: EKAH (TIRSTRUP (CIV/MI, DK) observed 0420 UTC 15 February 2019
Temperature: 3.0°C (37°F)
Dewpoint: 3.0°C (37°F) [RH = 100%]
Pressure (altimeter): 30.44 inches Hg (1031.0 mb)
Winds: from the SSW (210 degrees) at 2 MPH (2 knots; 1.0 m/s)
Visibility: missing
Ceiling: at least 12,000 feet AGL
Clouds: few clouds at 300 feet AGL
Weather: no significant weather observed at this time

METAR text: EKAH 150350Z AUTO 22003KT 5000NDV BKN003/// 04/04 Q1031
Conditions at: EKAH (TIRSTRUP (CIV/MI, DK) observed 0350 UTC 15 February 2019
Temperature: 4.0°C (39°F)
Dewpoint: 4.0°C (39°F) [RH = 100%]
Pressure (altimeter): 30.44 inches Hg (1031.0 mb)
Winds: from the SW (220 degrees) at 3 MPH (3 knots; 1.5 m/s)
Visibility: missing
Ceiling: 300 feet AGL
Clouds: broken clouds at 300 feet AGL
Weather: no significant weather observed at this time

METAR text: EKAH 150320Z AUTO 23004KT 190V270 6000NDV SCT004/// 05/04 Q1031
Conditions at: EKAH (TIRSTRUP (CIV/MI, DK) observed 0320 UTC 15 February 2019
Temperature: 5.0°C (41°F)
Dewpoint: 4.0°C (39°F) [RH = 93%]
Pressure (altimeter): 30.44 inches Hg (1031.0 mb)
Winds: from the SW (230 degrees) at 5 MPH (4 knots; 2.1 m/s)
Visibility: missing
Ceiling: at least 12,000 feet AGL
Clouds: scattered clouds at 400 feet AGL
Weather: no significant weather observed at this time

METAR text: EKAH 150250Z AUTO 24005KT 6000NDV BKN004/// 05/05 Q1031
Conditions at: EKAH (TIRSTRUP (CIV/MI, DK) observed 0250 UTC 15 February 2019
Temperature: 5.0°C (41°F)
Dewpoint: 5.0°C (41°F) [RH = 100%]
Pressure (altimeter): 30.44 inches Hg (1031.0 mb)
Winds: from the WSW (240 degrees) at 6 MPH (5 knots; 2.6 m/s)
Visibility: missing
Ceiling: 400 feet AGL
Clouds: broken clouds at 400 feet AGL
Weather: no significant weather observed at this time

METAR text: EKAH 150220Z AUTO 24004KT 190V280 6000NDV BKN005/// 05/05 Q1031
Conditions at: EKAH (TIRSTRUP (CIV/MI, DK) observed 0220 UTC 15 February 2019
Temperature: 5.0°C (41°F)
Dewpoint: 5.0°C (41°F) [RH = 100%]
Pressure (altimeter): 30.44 inches Hg (1031.0 mb)
Winds: from the WSW (240 degrees) at 5 MPH (4 knots; 2.1 m/s)
Visibility: missing
Ceiling: 500 feet AGL
Clouds: broken clouds at 500 feet AGL
Weather: no significant weather observed at this time

METAR text: EKAH 150150Z AUTO 25005KT 210V270 7000NDV OVC004/// 05/05 Q1031
Conditions at: EKAH (TIRSTRUP (CIV/MI, DK) observed 0150 UTC 15 February 2019
Temperature: 5.0°C (41°F)
Dewpoint: 5.0°C (41°F) [RH = 100%]
Pressure (altimeter): 30.44 inches Hg (1031.0 mb)
Winds: from the WSW (250 degrees) at 6 MPH (5 knots; 2.6 m/s)
Visibility: missing
Ceiling: 400 feet AGL
Clouds: overcast cloud deck at 400 feet AGL
Weather: no significant weather observed at this time

METAR text: EKAH 150120Z AUTO 25005KT 210V280 6000NDV OVC004/// 05/05 Q1031
Conditions at: EKAH (TIRSTRUP (CIV/MI, DK) observed 0120 UTC 15 February 2019
Temperature: 5.0°C (41°F)
Dewpoint: 5.0°C (41°F) [RH = 100%]
Pressure (altimeter): 30.44 inches Hg (1031.0 mb)
Winds: from the WSW (250 degrees) at 6 MPH (5 knots; 2.6 m/s)
Visibility: missing
Ceiling: 400 feet AGL
Clouds: overcast cloud deck at 400 feet AGL
Weather: no significant weather observed at this time

METAR text: EKAH 150050Z AUTO 25005KT 220V310 6000NDV OVC005/// 05/05 Q1031
Conditions at: EKAH (TIRSTRUP (CIV/MI, DK) observed 0050 UTC 15 February 2019
Temperature: 5.0°C (41°F)
Dewpoint: 5.0°C (41°F) [RH = 100%]
Pressure (altimeter): 30.44 inches Hg (1031.0 mb)
Winds: from the WSW (250 degrees) at 6 MPH (5 knots; 2.6 m/s)
Visibility: missing
Ceiling: 500 feet AGL
Clouds: overcast cloud deck at 500 feet AGL
Weather: no significant weather observed at this time

METAR text: EKAH 150020Z AUTO 26007KT 230V300 7000NDV BKN005/// 05/05 Q1031
Conditions at: EKAH (TIRSTRUP (CIV/MI, DK) observed 0020 UTC 15 February 2019
Temperature: 5.0°C (41°F)
Dewpoint: 5.0°C (41°F) [RH = 100%]
Pressure (altimeter): 30.44 inches Hg (1031.0 mb)
Winds: from the W (260 degrees) at 8 MPH (7 knots; 3.6 m/s)
Visibility: missing
Ceiling: 500 feet AGL
Clouds: broken clouds at 500 feet AGL
Weather: no significant weather observed at this time

METAR text: EKAH 142350Z AUTO 25006KT 220V280 7000NDV OVC005/// 05/05 Q1031
Conditions at: EKAH (TIRSTRUP (CIV/MI, DK) observed 2350 UTC 14 February 2019
Temperature: 5.0°C (41°F)
Dewpoint: 5.0°C (41°F) [RH = 100%]
Pressure (altimeter): 30.44 inches Hg (1031.0 mb)
Winds: from the WSW (250 degrees) at 7 MPH (6 knots; 3.1 m/s)
Visibility: missing
Ceiling: 500 feet AGL
Clouds: overcast cloud deck at 500 feet AGL
Weather: no significant weather observed at this time

METAR text: EKAH 142320Z AUTO 25006KT 210V280 6000NDV OVC005/// 05/05 Q1031
Conditions at: EKAH (TIRSTRUP (CIV/MI, DK) observed 2320 UTC 14 February 2019
Temperature: 5.0°C (41°F)
Dewpoint: 5.0°C (41°F) [RH = 100%]
Pressure (altimeter): 30.44 inches Hg (1031.0 mb)
Winds: from the WSW (250 degrees) at 7 MPH (6 knots; 3.1 m/s)
Visibility: missing
Ceiling: 500 feet AGL
Clouds: overcast cloud deck at 500 feet AGL
Weather: no significant weather observed at this time

METAR text: EKAH 142250Z AUTO 25006KT 210V270 6000NDV OVC005/// 06/05 Q1031
Conditions at: EKAH (TIRSTRUP (CIV/MI, DK) observed 2250 UTC 14 February 2019
Temperature: 6.0°C (43°F)
Dewpoint: 5.0°C (41°F) [RH = 93%]
Pressure (altimeter): 30.44 inches Hg (1031.0 mb)
Winds: from the WSW (250 degrees) at 7 MPH (6 knots; 3.1 m/s)
Visibility: missing
Ceiling: 500 feet AGL
Clouds: overcast cloud deck at 500 feet AGL
Weather: no significant weather observed at this time

METAR text: EKAH 142220Z AUTO 25006KT 210V280 5000NDV OVC005/// 06/05 Q1031
Conditions at: EKAH (TIRSTRUP (CIV/MI, DK) observed 2220 UTC 14 February 2019
Temperature: 6.0°C (43°F)
Dewpoint: 5.0°C (41°F) [RH = 93%]
Pressure (altimeter): 30.44 inches Hg (1031.0 mb)
Winds: from the WSW (250 degrees) at 7 MPH (6 knots; 3.1 m/s)
Visibility: missing
Ceiling: 500 feet AGL
Clouds: overcast cloud deck at 500 feet AGL
Weather: no significant weather observed at this time

METAR text: EKAH 142150Z AUTO 25008KT 210V280 7000NDV OVC005/// 06/05 Q1031
Conditions at: EKAH (TIRSTRUP (CIV/MI, DK) observed 2150 UTC 14 February 2019
Temperature: 6.0°C (43°F)
Dewpoint: 5.0°C (41°F) [RH = 93%]
Pressure (altimeter): 30.44 inches Hg (1031.0 mb)
Winds: from the WSW (250 degrees) at 9 MPH (8 knots; 4.1 m/s)
Visibility: missing
Ceiling: 500 feet AGL
Clouds: overcast cloud deck at 500 feet AGL
Weather: no significant weather observed at this time

METAR text: EKAH 142120Z AUTO 24006KT 200V270 7000NDV BKN007/// 06/05 Q1031
Conditions at: EKAH (TIRSTRUP (CIV/MI, DK) observed 2120 UTC 14 February 2019
Temperature: 6.0°C (43°F)
Dewpoint: 5.0°C (41°F) [RH = 93%]
Pressure (altimeter): 30.44 inches Hg (1031.0 mb)
Winds: from the WSW (240 degrees) at 7 MPH (6 knots; 3.1 m/s)
Visibility: missing
Ceiling: 700 feet AGL
Clouds: broken clouds at 700 feet AGL
Weather: no significant weather observed at this time

METAR text: EKAH 142050Z AUTO 25005KT 200V290 7000NDV BKN008/// 06/05 Q1031
Conditions at: EKAH (TIRSTRUP (CIV/MI, DK) observed 2050 UTC 14 February 2019
Temperature: 6.0°C (43°F)
Dewpoint: 5.0°C (41°F) [RH = 93%]
Pressure (altimeter): 30.44 inches Hg (1031.0 mb)
Winds: from the WSW (250 degrees) at 6 MPH (5 knots; 2.6 m/s)
Visibility: missing
Ceiling: 800 feet AGL
Clouds: broken clouds at 800 feet AGL
Weather: no significant weather observed at this time

METAR text: EKAH 142020Z AUTO 26005KT 220V280 9000NDV BKN007/// 06/05 Q1031
Conditions at: EKAH (TIRSTRUP (CIV/MI, DK) observed 2020 UTC 14 February 2019
Temperature: 6.0°C (43°F)
Dewpoint: 5.0°C (41°F) [RH = 93%]
Pressure (altimeter): 30.44 inches Hg (1031.0 mb)
Winds: from the W (260 degrees) at 6 MPH (5 knots; 2.6 m/s)
Visibility: missing
Ceiling: 700 feet AGL
Clouds: broken clouds at 700 feet AGL
Weather: no significant weather observed at this time

METAR text: EKAH 141950Z AUTO 26006KT 7000NDV OVC007/// 06/05 Q1031
Conditions at: EKAH (TIRSTRUP (CIV/MI, DK) observed 1950 UTC 14 February 2019
Temperature: 6.0°C (43°F)
Dewpoint: 5.0°C (41°F) [RH = 93%]
Pressure (altimeter): 30.44 inches Hg (1031.0 mb)
Winds: from the W (260 degrees) at 7 MPH (6 knots; 3.1 m/s)
Visibility: missing
Ceiling: 700 feet AGL
Clouds: overcast cloud deck at 700 feet AGL
Weather: no significant weather observed at this time

METAR text: EKAH 141920Z AUTO 25004KT 220V290 8000NDV BKN008/// 06/05 Q1031
Conditions at: EKAH (TIRSTRUP (CIV/MI, DK) observed 1920 UTC 14 February 2019
Temperature: 6.0°C (43°F)
Dewpoint: 5.0°C (41°F) [RH = 93%]
Pressure (altimeter): 30.44 inches Hg (1031.0 mb)
Winds: from the WSW (250 degrees) at 5 MPH (4 knots; 2.1 m/s)
Visibility: missing
Ceiling: 800 feet AGL
Clouds: broken clouds at 800 feet AGL
Weather: no significant weather observed at this time

METAR text: EKAH 141850Z AUTO 25005KT 220V290 7000NDV BKN009/// BKN023/// 06/05 Q1031
Conditions at: EKAH (TIRSTRUP (CIV/MI, DK) observed 1850 UTC 14 February 2019
Temperature: 6.0°C (43°F)
Dewpoint: 5.0°C (41°F) [RH = 93%]
Pressure (altimeter): 30.44 inches Hg (1031.0 mb)
Winds: from the WSW (250 degrees) at 6 MPH (5 knots; 2.6 m/s)
Visibility: missing
Ceiling: 900 feet AGL
Clouds: broken clouds at 900 feet AGL
broken clouds at 2300 feet AGL
Weather: no significant weather observed at this time

METAR text: EKAH 141820Z AUTO 23005KT 180V270 7000NDV BKN021/// 07/05 Q1031
Conditions at: EKAH (TIRSTRUP (CIV/MI, DK) observed 1820 UTC 14 February 2019
Temperature: 7.0°C (45°F)
Dewpoint: 5.0°C (41°F) [RH = 87%]
Pressure (altimeter): 30.44 inches Hg (1031.0 mb)
Winds: from the SW (230 degrees) at 6 MPH (5 knots; 2.6 m/s)
Visibility: missing
Ceiling: 2100 feet AGL
Clouds: broken clouds at 2100 feet AGL
Weather: no significant weather observed at this time

METAR text: EKAH 141750Z AUTO 24005KT 190V270 7000NDV OVC017/// 07/05 Q1031
Conditions at: EKAH (TIRSTRUP (CIV/MI, DK) observed 1750 UTC 14 February 2019
Temperature: 7.0°C (45°F)
Dewpoint: 5.0°C (41°F) [RH = 87%]
Pressure (altimeter): 30.44 inches Hg (1031.0 mb)
Winds: from the WSW (240 degrees) at 6 MPH (5 knots; 2.6 m/s)
Visibility: missing
Ceiling: 1700 feet AGL
Clouds: overcast cloud deck at 1700 feet AGL
Weather: no significant weather observed at this time

METAR text: EKAH 141720Z AUTO 25005KT 8000NDV OVC016/// 07/05 Q1031
Conditions at: EKAH (TIRSTRUP (CIV/MI, DK) observed 1720 UTC 14 February 2019
Temperature: 7.0°C (45°F)
Dewpoint: 5.0°C (41°F) [RH = 87%]
Pressure (altimeter): 30.44 inches Hg (1031.0 mb)
Winds: from the WSW (250 degrees) at 6 MPH (5 knots; 2.6 m/s)
Visibility: missing
Ceiling: 1600 feet AGL
Clouds: overcast cloud deck at 1600 feet AGL
Weather: no significant weather observed at this time

METAR text: EKAH 141650Z AUTO 27008KT 240V300 8000NDV OVC010/// 07/06 Q1031
Conditions at: EKAH (TIRSTRUP (CIV/MI, DK) observed 1650 UTC 14 February 2019
Temperature: 7.0°C (45°F)
Dewpoint: 6.0°C (43°F) [RH = 93%]
Pressure (altimeter): 30.44 inches Hg (1031.0 mb)
Winds: from the W (270 degrees) at 9 MPH (8 knots; 4.1 m/s)
Visibility: missing
Ceiling: 1000 feet AGL
Clouds: overcast cloud deck at 1000 feet AGL
Weather: no significant weather observed at this time

METAR text: EKAH 141620Z AUTO 26006KT 9000NDV OVC011/// 07/06 Q1030
Conditions at: EKAH (TIRSTRUP (CIV/MI, DK) observed 1620 UTC 14 February 2019
Temperature: 7.0°C (45°F)
Dewpoint: 6.0°C (43°F) [RH = 93%]
Pressure (altimeter): 30.41 inches Hg (1030.0 mb)
Winds: from the W (260 degrees) at 7 MPH (6 knots; 3.1 m/s)
Visibility: missing
Ceiling: 1100 feet AGL
Clouds: overcast cloud deck at 1100 feet AGL
Weather: no significant weather observed at this time

METAR text: EKAH 141550Z AUTO 25006KT 9999NDV BKN012/// 07/06 Q1030
Conditions at: EKAH (TIRSTRUP (CIV/MI, DK) observed 1550 UTC 14 February 2019
Temperature: 7.0°C (45°F)
Dewpoint: 6.0°C (43°F) [RH = 93%]
Pressure (altimeter): 30.41 inches Hg (1030.0 mb)
Winds: from the WSW (250 degrees) at 7 MPH (6 knots; 3.1 m/s)
Visibility: missing
Ceiling: 1200 feet AGL
Clouds: broken clouds at 1200 feet AGL
Weather: no significant weather observed at this time

METAR text: EKAH 141520Z AUTO 25005KT 210V280 9000NDV OVC012/// 07/06 Q1030
Conditions at: EKAH (TIRSTRUP (CIV/MI, DK) observed 1520 UTC 14 February 2019
Temperature: 7.0°C (45°F)
Dewpoint: 6.0°C (43°F) [RH = 93%]
Pressure (altimeter): 30.41 inches Hg (1030.0 mb)
Winds: from the WSW (250 degrees) at 6 MPH (5 knots; 2.6 m/s)
Visibility: missing
Ceiling: 1200 feet AGL
Clouds: overcast cloud deck at 1200 feet AGL
Weather: no significant weather observed at this time

METAR text: EKAH 141450Z AUTO 23005KT 190V270 9999NDV BKN011/// 07/06 Q1030
Conditions at: EKAH (TIRSTRUP (CIV/MI, DK) observed 1450 UTC 14 February 2019
Temperature: 7.0°C (45°F)
Dewpoint: 6.0°C (43°F) [RH = 93%]
Pressure (altimeter): 30.41 inches Hg (1030.0 mb)
Winds: from the SW (230 degrees) at 6 MPH (5 knots; 2.6 m/s)
Visibility: missing
Ceiling: 1100 feet AGL
Clouds: broken clouds at 1100 feet AGL
Weather: no significant weather observed at this time

METAR text: EKAH 141420Z AUTO 24005KT 190V270 9000NDV BKN011/// 07/06 Q1030
Conditions at: EKAH (TIRSTRUP (CIV/MI, DK) observed 1420 UTC 14 February 2019
Temperature: 7.0°C (45°F)
Dewpoint: 6.0°C (43°F) [RH = 93%]
Pressure (altimeter): 30.41 inches Hg (1030.0 mb)
Winds: from the WSW (240 degrees) at 6 MPH (5 knots; 2.6 m/s)
Visibility: missing
Ceiling: 1100 feet AGL
Clouds: broken clouds at 1100 feet AGL
Weather: no significant weather observed at this time

METAR text: EKAH 141350Z AUTO 24006KT 200V270 9999NDV OVC009/// 07/06 Q1030
Conditions at: EKAH (TIRSTRUP (CIV/MI, DK) observed 1350 UTC 14 February 2019
Temperature: 7.0°C (45°F)
Dewpoint: 6.0°C (43°F) [RH = 93%]
Pressure (altimeter): 30.41 inches Hg (1030.0 mb)
Winds: from the WSW (240 degrees) at 7 MPH (6 knots; 3.1 m/s)
Visibility: missing
Ceiling: 900 feet AGL
Clouds: overcast cloud deck at 900 feet AGL
Weather: no significant weather observed at this time

METAR text: EKAH 141320Z AUTO 24008KT 200V270 9999NDV OVC009/// 07/06 Q1031
Conditions at: EKAH (TIRSTRUP (CIV/MI, DK) observed 1320 UTC 14 February 2019
Temperature: 7.0°C (45°F)
Dewpoint: 6.0°C (43°F) [RH = 93%]
Pressure (altimeter): 30.44 inches Hg (1031.0 mb)
Winds: from the WSW (240 degrees) at 9 MPH (8 knots; 4.1 m/s)
Visibility: missing
Ceiling: 900 feet AGL
Clouds: overcast cloud deck at 900 feet AGL
Weather: no significant weather observed at this time

METAR text: EKAH 141250Z AUTO 23006KT 170V280 9000NDV BKN007/// 07/06 Q1030
Conditions at: EKAH (TIRSTRUP (CIV/MI, DK) observed 1250 UTC 14 February 2019
Temperature: 7.0°C (45°F)
Dewpoint: 6.0°C (43°F) [RH = 93%]
Pressure (altimeter): 30.41 inches Hg (1030.0 mb)
Winds: from the SW (230 degrees) at 7 MPH (6 knots; 3.1 m/s)
Visibility: missing
Ceiling: 700 feet AGL
Clouds: broken clouds at 700 feet AGL
Weather: no significant weather observed at this time

METAR text: EKAH 141220Z AUTO 23005KT 170V270 8000NDV OVC006/// 07/06 Q1031
Conditions at: EKAH (TIRSTRUP (CIV/MI, DK) observed 1220 UTC 14 February 2019
Temperature: 7.0°C (45°F)
Dewpoint: 6.0°C (43°F) [RH = 93%]
Pressure (altimeter): 30.44 inches Hg (1031.0 mb)
Winds: from the SW (230 degrees) at 6 MPH (5 knots; 2.6 m/s)
Visibility: missing
Ceiling: 600 feet AGL
Clouds: overcast cloud deck at 600 feet AGL
Weather: no significant weather observed at this time

METAR text: EKAH 141150Z 24005KT 200V290 7000 OVC004 07/06 Q1031
Conditions at: EKAH (TIRSTRUP (CIV/MI, DK) observed 1150 UTC 14 February 2019
Temperature: 7.0°C (45°F)
Dewpoint: 6.0°C (43°F) [RH = 93%]
Pressure (altimeter): 30.44 inches Hg (1031.0 mb)
Winds: from the WSW (240 degrees) at 6 MPH (5 knots; 2.6 m/s)
Visibility: 4 miles ( 7 km)
Ceiling: 400 feet AGL
Clouds: overcast cloud deck at 400 feet AGL
Weather: no significant weather observed at this time

METAR text: EKAH 141120Z 23005KT 160V280 7000 OVC004 07/06 Q1031
Conditions at: EKAH (TIRSTRUP (CIV/MI, DK) observed 1120 UTC 14 February 2019
Temperature: 7.0°C (45°F)
Dewpoint: 6.0°C (43°F) [RH = 93%]
Pressure (altimeter): 30.44 inches Hg (1031.0 mb)
Winds: from the SW (230 degrees) at 6 MPH (5 knots; 2.6 m/s)
Visibility: 4 miles ( 7 km)
Ceiling: 400 feet AGL
Clouds: overcast cloud deck at 400 feet AGL
Weather: no significant weather observed at this time

Forecast for: EKAH (TIRSTRUP (CIV/MI, DK)
Text: TAF EKAH 151702Z 1518/1618 20008KT 8000 FEW005
Forecast period: 1800 UTC 15 February 2019 to 1800 UTC 16 February 2019
Forecast type: FROM: standard forecast or significant change
Winds: from the SSW (200 degrees) at 9 MPH (8 knots; 4.1 m/s)
Visibility: 5 miles (8 km)
Ceiling: at least 12,000 feet AGL
Clouds: few clouds at 500 feet AGL
Weather: no significant weather forecast for this period
Text: TEMPO 1600/1609 4000 BR
Forecast period: 0000 to 0900 UTC 16 February 2019
Forecast type: TEMPORARY: The following changes expected for less than half the time period
Visibility: 2.49 miles (4.01 km)
Ceiling: unknown
Clouds: missing
Weather: BR  (mist)
Text: TEMPO 1614/1616 4000 BR BKN012
Forecast period: 1400 to 1600 UTC 16 February 2019
Forecast type: TEMPORARY: The following changes expected for less than half the time period
Visibility: 2.49 miles (4.01 km)
Ceiling: 1200 feet AGL
Clouds: broken clouds at 1200 feet AGL
Weather: BR  (mist)